Time;durP1;ratioP1;P1;durP2;ratioP2;P2;SDS_P1;SDS_P2;PMS_P1;PMS_P2;Temp;Humidity;BMP_temperature;BMP_pressure;BME280_temperature;BME280_humidity;BME280_pressure;Samples;Min_cycle;Max_cycle;Signal;HPM_P1;HPM_P2
2022/08/04 00:01:28;;;;;;;0.90;0.90;;;;;22.50;95939.00;;;;5117083;28;20190;-53
2022/08/04 00:04:01;;;;;;;0.50;0.50;;;;;22.40;95936.00;;;;5117152;28;20696;-53
2022/08/04 00:06:44;;;;;;;0.60;0.60;;;;;22.30;95939.00;;;;5099038;28;20216;-53
2022/08/04 00:09:16;;;;;;;0.40;0.40;;;;;22.10;95942.00;;;;5116948;28;20213;-54
2022/08/04 00:11:48;;;;;;;0.63;0.63;;;;;22.10;95938.00;;;;5117235;28;20174;-54
2022/08/04 00:14:18;;;;;;;0.50;0.50;;;;;22.10;95938.00;;;;5116910;28;20217;-54
2022/08/04 00:16:48;;;;;;;5.45;1.17;;;;;22.20;95932.00;;;;5116794;28;20204;-54
2022/08/04 00:19:21;;;;;;;0.77;0.77;;;;;22.10;95941.00;;;;5116714;28;20194;-52
2022/08/04 00:21:58;;;;;;;0.40;0.40;;;;;22.10;95932.00;;;;5116714;28;20213;-52
2022/08/04 00:24:28;;;;;;;0.63;0.63;;;;;22.10;95931.00;;;;5116808;28;20210;-52
2022/08/04 00:26:56;;;;;;;0.50;0.50;;;;;22.20;95931.00;;;;5116566;28;20249;-53
2022/08/04 00:29:24;;;;;;;0.95;0.55;;;;;22.20;95925.00;;;;5116644;28;20298;-52
2022/08/04 00:31:51;;;;;;;0.50;0.50;;;;;22.30;95929.00;;;;5116532;28;20213;-53
2022/08/04 00:34:19;;;;;;;0.73;0.73;;;;;22.20;95932.00;;;;5116380;28;20222;-52
2022/08/04 00:36:49;;;;;;;0.82;0.82;;;;;22.00;95933.00;;;;5116734;28;20187;-52
2022/08/04 00:39:17;;;;;;;0.82;0.82;;;;;22.00;95936.00;;;;5116345;28;20233;-54
2022/08/04 00:42:03;;;;;;;0.30;0.30;;;;;22.10;95932.00;;;;5116386;28;20205;-52
2022/08/04 00:44:52;;;;;;;0.50;0.50;;;;;22.00;95928.00;;;;5116547;28;20206;-52
2022/08/04 00:47:54;;;;;;;1.33;0.57;;;;;21.70;95925.00;;;;5116449;28;20218;-52
2022/08/04 00:50:30;;;;;;;0.43;0.43;;;;;21.60;95924.00;;;;5062668;28;20235;-52
2022/08/04 00:53:08;;;;;;;0.90;0.75;;;;;21.60;95926.00;;;;5116227;28;20223;-55
2022/08/04 00:56:13;;;;;;;0.40;0.40;;;;;21.70;95919.00;;;;5116180;28;20212;-52
2022/08/04 00:59:02;;;;;;;0.40;0.40;;;;;21.70;95922.00;;;;5103465;28;20224;-52
2022/08/04 01:01:46;;;;;;;0.85;0.75;;;;;21.60;95915.00;;;;5116227;28;20212;-54
2022/08/04 01:04:23;;;;;;;0.70;0.70;;;;;21.60;95919.00;;;;5116085;28;20551;-54
2022/08/04 01:07:06;;;;;;;0.43;0.43;;;;;21.50;95922.00;;;;5116058;28;20628;-53
2022/08/04 01:09:43;;;;;;;0.73;0.73;;;;;21.50;95927.00;;;;5116023;28;20228;-52
2022/08/04 01:12:37;;;;;;;1.35;0.65;;;;;21.60;95919.00;;;;5115985;28;20197;-53
2022/08/04 01:15:06;;;;;;;0.75;0.75;;;;;21.50;95923.00;;;;5115137;28;20250;-52
2022/08/04 01:17:56;;;;;;;0.60;0.60;;;;;21.50;95929.00;;;;5115822;28;20190;-52
2022/08/04 01:20:29;;;;;;;0.50;0.50;;;;;21.50;95923.00;;;;5115836;28;20190;-54
2022/08/04 01:23:34;;;;;;;0.90;0.90;;;;;21.50;95926.00;;;;5115885;28;20206;-54
2022/08/04 01:26:43;;;;;;;2.72;1.02;;;;;21.40;95923.00;;;;5115147;28;20193;-52
2022/08/04 01:29:11;;;;;;;0.60;0.60;;;;;21.20;95923.00;;;;5013646;28;20275;-54
2022/08/04 01:32:03;;;;;;;0.70;0.70;;;;;21.10;95926.00;;;;5092066;28;20641;-53
2022/08/04 01:34:34;;;;;;;1.65;0.98;;;;;20.90;95930.00;;;;5107079;28;20256;-52
2022/08/04 01:37:14;;;;;;;0.50;0.50;;;;;21.10;95922.00;;;;5115597;28;20201;-52
2022/08/04 01:39:49;;;;;;;0.57;0.57;;;;;21.20;95927.00;;;;5115656;28;20220;-52
2022/08/04 01:42:21;;;;;;;0.60;0.60;;;;;21.20;95925.00;;;;5115582;28;20186;-52
2022/08/04 01:44:52;;;;;;;0.40;0.40;;;;;21.20;95917.00;;;;5115456;28;20210;-53
2022/08/04 01:47:21;;;;;;;0.47;0.47;;;;;21.20;95917.00;;;;5115424;28;20200;-52
2022/08/04 01:49:51;;;;;;;0.45;0.45;;;;;21.10;95921.00;;;;5115324;28;20231;-57
2022/08/04 01:52:19;;;;;;;0.75;0.75;;;;;21.10;95915.00;;;;5115286;28;20214;-54
2022/08/04 01:54:48;;;;;;;0.60;0.60;;;;;21.00;95916.00;;;;5115516;28;20217;-55
2022/08/04 01:57:17;;;;;;;0.55;0.55;;;;;21.10;95911.00;;;;5115402;28;20200;-54
2022/08/04 01:59:50;;;;;;;0.85;0.85;;;;;21.00;95914.00;;;;5115498;28;20257;-57
2022/08/04 02:02:21;;;;;;;0.70;0.70;;;;;21.00;95916.00;;;;5097121;28;20358;-54
2022/08/04 02:04:48;;;;;;;0.73;0.73;;;;;20.90;95912.00;;;;5115126;28;20247;-57
2022/08/04 02:07:27;;;;;;;0.40;0.40;;;;;21.00;95911.00;;;;5115378;28;20197;-54
2022/08/04 02:10:04;;;;;;;1.42;0.73;;;;;21.00;95913.00;;;;5114981;28;20182;-52
2022/08/04 02:12:48;;;;;;;0.52;0.52;;;;;20.90;95913.00;;;;5115015;28;20272;-53
2022/08/04 02:15:27;;;;;;;0.40;0.40;;;;;20.90;95907.00;;;;5096976;28;20533;-52
2022/08/04 02:18:01;;;;;;;0.65;0.65;;;;;20.70;95910.00;;;;5114808;28;20217;-52
2022/08/04 02:20:33;;;;;;;1.03;0.93;;;;;20.60;95908.00;;;;5114837;28;20207;-52
2022/08/04 02:23:01;;;;;;;0.85;0.85;;;;;20.70;95904.00;;;;5114837;28;20234;-52
2022/08/04 02:25:32;;;;;;;0.63;0.63;;;;;20.70;95907.00;;;;5114798;28;20217;-52
2022/08/04 02:28:12;;;;;;;0.50;0.50;;;;;20.80;95904.00;;;;5114837;28;20216;-54
2022/08/04 02:30:46;;;;;;;0.60;0.60;;;;;20.70;95906.00;;;;5114787;28;20186;-52
2022/08/04 02:33:22;;;;;;;0.95;0.95;;;;;20.60;95911.00;;;;5114648;28;20233;-54
2022/08/04 02:35:56;;;;;;;0.90;0.90;;;;;20.60;95900.00;;;;5114695;28;20221;-54
2022/08/04 02:38:34;;;;;;;0.82;0.82;;;;;20.50;95899.00;;;;5114594;28;20213;-54
2022/08/04 02:41:03;;;;;;;1.17;0.95;;;;;20.50;95888.00;;;;5114549;28;20213;-54
2022/08/04 02:43:31;;;;;;;0.50;0.50;;;;;20.50;95892.00;;;;5114474;28;20217;-54
2022/08/04 02:46:02;;;;;;;0.65;0.65;;;;;20.40;95894.00;;;;5114564;28;20194;-54
2022/08/04 02:48:33;;;;;;;0.70;0.70;;;;;20.30;95898.00;;;;5114498;28;20191;-55
2022/08/04 02:51:02;;;;;;;0.45;0.45;;;;;20.20;95897.00;;;;5114450;28;20198;-52
2022/08/04 02:53:36;;;;;;;1.38;0.98;;;;;20.20;95888.00;;;;5114251;28;20694;-53
2022/08/04 02:56:03;;;;;;;0.80;0.80;;;;;20.20;95891.00;;;;5096369;28;20281;-53
2022/08/04 02:58:35;;;;;;;0.80;0.80;;;;;20.20;95894.00;;;;5114348;28;20759;-54
2022/08/04 03:01:03;;;;;;;0.85;0.85;;;;;20.20;95891.00;;;;5096416;28;20742;-52
2022/08/04 03:03:38;;;;;;;0.70;0.70;;;;;20.30;95893.00;;;;5114358;28;20220;-52
2022/08/04 03:06:50;;;;;;;0.50;0.50;;;;;20.30;95888.00;;;;5114156;28;20300;-52
2022/08/04 03:09:50;;;;;;;0.50;0.50;;;;;20.30;95889.00;;;;5114041;28;20538;-53
2022/08/04 03:12:46;;;;;;;0.70;0.70;;;;;20.20;95889.00;;;;5082433;28;20205;-53
2022/08/04 03:15:31;;;;;;;0.90;0.90;;;;;20.20;95890.00;;;;5111508;28;20308;-53
2022/08/04 03:18:41;;;;;;;0.60;0.60;;;;;20.00;95892.00;;;;5096086;28;20290;-53
2022/08/04 03:21:56;;;;;;;0.50;0.50;;;;;19.80;95891.00;;;;5114258;28;20208;-52
2022/08/04 03:24:59;;;;;;;1.30;1.30;;;;;19.80;95890.00;;;;5113957;28;20270;-53
2022/08/04 03:28:00;;;;;;;0.60;0.60;;;;;19.70;95893.00;;;;5113150;28;20193;-52
2022/08/04 03:30:42;;;;;;;0.73;0.73;;;;;19.60;95894.00;;;;5113846;28;20260;-53
2022/08/04 03:33:40;;;;;;;0.50;0.50;;;;;19.60;95892.00;;;;5113823;28;20267;-52
2022/08/04 03:36:42;;;;;;;0.50;0.50;;;;;19.60;95899.00;;;;5109656;28;20230;-54
2022/08/04 03:39:35;;;;;;;0.77;0.77;;;;;19.60;95890.00;;;;5113826;28;20194;-53
2022/08/04 03:42:17;;;;;;;1.07;1.07;;;;;19.70;95893.00;;;;5113708;28;20225;-52
2022/08/04 03:45:12;;;;;;;0.50;0.50;;;;;19.60;95893.00;;;;5113700;28;20666;-53
2022/08/04 03:48:07;;;;;;;0.80;0.80;;;;;19.80;95897.00;;;;5113585;28;20190;-53
2022/08/04 03:53:07;;;;;;;0.63;0.63;;;;;19.70;95890.00;;;;5095805;28;20230;-54
2022/08/04 03:53:49;;;;;;;0.50;0.50;;;;;19.70;95890.00;;;;5113341;28;20236;-57
2022/08/04 03:56:52;;;;;;;0.50;0.50;;;;;19.60;95888.00;;;;5113760;28;20659;-54
2022/08/04 03:59:40;;;;;;;0.80;0.80;;;;;19.60;95883.00;;;;5011819;28;20205;-54
2022/08/04 04:02:38;;;;;;;0.50;0.50;;;;;19.50;95882.00;;;;5111205;28;20237;-54
2022/08/04 04:05:31;;;;;;;0.93;0.93;;;;;19.50;95884.00;;;;5103224;28;20210;-53
2022/08/04 04:08:28;;;;;;;0.60;0.60;;;;;19.40;95889.00;;;;5113368;28;20202;-53
2022/08/04 04:11:31;;;;;;;0.77;0.77;;;;;19.30;95886.00;;;;5113429;28;20186;-53
2022/08/04 04:14:25;;;;;;;0.73;0.73;;;;;19.40;95891.00;;;;5092231;28;20679;-53
2022/08/04 04:17:17;;;;;;;0.80;0.80;;;;;19.30;95881.00;;;;5113484;28;20266;-54
2022/08/04 04:19:59;;;;;;;0.70;0.70;;;;;19.30;95886.00;;;;5113257;28;20222;-52
2022/08/04 04:22:53;;;;;;;0.50;0.50;;;;;19.40;95888.00;;;;5095359;28;20198;-53
2022/08/04 04:25:33;;;;;;;0.70;0.70;;;;;19.40;95893.00;;;;5114018;28;20214;-54
2022/08/04 04:28:21;;;;;;;0.50;0.50;;;;;19.40;95889.00;;;;5116655;28;20275;-53
2022/08/04 04:31:01;;;;;;;0.83;0.83;;;;;19.50;95885.00;;;;5116507;28;20225;-53
2022/08/04 04:33:43;;;;;;;0.57;0.57;;;;;19.50;95887.00;;;;5116538;28;20279;-54
2022/08/04 04:36:18;;;;;;;1.93;1.17;;;;;19.50;95884.00;;;;5116542;28;20245;-54
2022/08/04 04:39:12;;;;;;;0.67;0.67;;;;;19.50;95886.00;;;;5116499;28;20591;-51
2022/08/04 04:42:04;;;;;;;0.83;0.83;;;;;19.40;95888.00;;;;5116386;28;20193;-54
2022/08/04 04:45:05;;;;;;;0.73;0.73;;;;;19.40;95888.00;;;;5116322;28;20225;-53
2022/08/04 04:47:45;;;;;;;0.67;0.67;;;;;19.50;95891.00;;;;5116337;28;20204;-53
2022/08/04 04:50:20;;;;;;;0.80;0.80;;;;;19.70;95890.00;;;;5116293;28;20221;-53
2022/08/04 04:52:52;;;;;;;0.70;0.70;;;;;19.90;95887.00;;;;5116445;28;20189;-55
2022/08/04 04:55:23;;;;;;;0.80;0.80;;;;;20.00;95891.00;;;;5098503;28;20270;-56
2022/08/04 04:57:52;;;;;;;0.40;0.40;;;;;20.10;95893.00;;;;5098222;28;20637;-53
2022/08/04 05:00:20;;;;;;;0.90;0.80;;;;;20.10;95892.00;;;;5116104;28;20190;-52
2022/08/04 05:03:16;;;;;;;0.50;0.50;;;;;20.10;95892.00;;;;5116083;28;20218;-53
2022/08/04 05:06:13;;;;;;;0.53;0.53;;;;;20.00;95888.00;;;;5116113;28;20271;-53
2022/08/04 05:08:59;;;;;;;0.80;0.80;;;;;20.00;95891.00;;;;5098086;28;20237;-52
2022/08/04 05:11:45;;;;;;;1.10;1.10;;;;;20.00;95893.00;;;;5115987;28;20213;-54
2022/08/04 05:14:17;;;;;;;1.03;1.03;;;;;20.10;95889.00;;;;5115789;28;20314;-55
2022/08/04 05:16:50;;;;;;;0.77;0.77;;;;;20.10;95892.00;;;;5115881;28;20565;-52
2022/08/04 05:19:24;;;;;;;0.90;0.90;;;;;20.10;95900.00;;;;5115637;28;20225;-55
2022/08/04 05:22:00;;;;;;;0.50;0.50;;;;;20.20;95892.00;;;;5115692;28;20211;-53
2022/08/04 05:24:28;;;;;;;0.83;0.83;;;;;20.20;95897.00;;;;5115714;28;20281;-53
2022/08/04 05:27:00;;;;;;;1.13;1.03;;;;;20.30;95897.00;;;;5115732;28;20629;-55
2022/08/04 05:29:30;;;;;;;0.73;0.73;;;;;20.50;95897.00;;;;5115824;28;20190;-53
2022/08/04 05:32:19;;;;;;;0.50;0.50;;;;;20.60;95901.00;;;;5097928;28;20552;-58
2022/08/04 05:34:52;;;;;;;0.40;0.40;;;;;20.70;95898.00;;;;5115576;28;20237;-53
2022/08/04 05:37:21;;;;;;;0.80;0.80;;;;;20.80;95894.00;;;;5114993;28;20607;-53
2022/08/04 05:39:53;;;;;;;3.25;1.65;;;;;20.90;95901.00;;;;5115489;28;20202;-53
2022/08/04 05:42:20;;;;;;;1.05;1.05;;;;;20.90;95898.00;;;;5115330;28;20217;-56
2022/08/04 05:44:47;;;;;;;0.38;0.38;;;;;20.90;95890.00;;;;5115432;28;20186;-54
2022/08/04 05:47:16;;;;;;;0.65;0.65;;;;;20.90;95898.00;;;;5115721;28;20253;-59
2022/08/04 05:49:46;;;;;;;0.70;0.70;;;;;20.90;95891.00;;;;5115785;28;20202;-59
2022/08/04 05:52:16;;;;;;;2.33;1.00;;;;;20.80;95891.00;;;;5115490;28;20219;-54
2022/08/04 05:54:44;;;;;;;0.47;0.47;;;;;20.80;95898.00;;;;5115181;28;20222;-54
2022/08/04 05:57:12;;;;;;;0.63;0.63;;;;;20.80;95894.00;;;;5115185;28;20288;-52
2022/08/04 05:59:41;;;;;;;0.95;0.95;;;;;20.90;95900.00;;;;5097112;28;20226;-51
2022/08/04 06:02:10;;;;;;;1.40;1.35;;;;;20.90;95905.00;;;;5097149;28;20213;-53
2022/08/04 06:04:41;;;;;;;0.73;0.73;;;;;21.10;95908.00;;;;5114986;28;20641;-52
2022/08/04 06:07:09;;;;;;;0.50;0.50;;;;;21.20;95903.00;;;;5114795;28;20204;-53
2022/08/04 06:09:37;;;;;;;0.50;0.50;;;;;21.30;95906.00;;;;5114802;28;20192;-51
2022/08/04 06:12:08;;;;;;;0.40;0.40;;;;;21.30;95903.00;;;;5114914;28;20206;-51
2022/08/04 06:14:39;;;;;;;0.60;0.60;;;;;21.40;95902.00;;;;5114892;28;20618;-52
2022/08/04 06:17:12;;;;;;;0.47;0.47;;;;;21.60;95897.00;;;;5114897;28;20224;-52
2022/08/04 06:19:41;;;;;;;0.90;0.75;;;;;21.70;95897.00;;;;5114810;28;20197;-52
2022/08/04 06:22:11;;;;;;;0.50;0.50;;;;;21.70;95891.00;;;;5096868;28;20245;-52
2022/08/04 06:24:41;;;;;;;0.90;0.90;;;;;21.90;95896.00;;;;5096832;28;20308;-54
2022/08/04 06:27:08;;;;;;;23.20;1.00;;;;;22.00;95896.00;;;;5114567;28;20190;-53
2022/08/04 06:29:39;;;;;;;1.63;0.88;;;;;22.10;95892.00;;;;5114655;28;20202;-52
2022/08/04 06:32:25;;;;;;;0.57;0.57;;;;;22.30;95894.00;;;;5114650;28;20258;-54
2022/08/04 06:34:56;;;;;;;0.70;0.70;;;;;22.40;95894.00;;;;5114612;28;20248;-55
2022/08/04 06:37:26;;;;;;;0.60;0.60;;;;;22.60;95895.00;;;;5114548;28;20213;-53
2022/08/04 06:39:54;;;;;;;0.98;0.98;;;;;22.80;95901.00;;;;5114341;28;20305;-53
2022/08/04 06:42:23;;;;;;;0.57;0.57;;;;;23.00;95896.00;;;;5114451;28;20197;-53
2022/08/04 06:44:52;;;;;;;6.45;1.85;;;;;23.10;95895.00;;;;5114380;28;20301;-52
2022/08/04 06:47:20;;;;;;;0.90;0.90;;;;;23.30;95892.00;;;;5113999;28;20208;-54
2022/08/04 06:49:49;;;;;;;0.60;0.60;;;;;23.50;95892.00;;;;5113963;28;20326;-56
2022/08/04 06:52:20;;;;;;;0.57;0.57;;;;;23.70;95902.00;;;;5114382;28;20230;-54
2022/08/04 06:54:48;;;;;;;10.32;0.88;;;;;23.90;95900.00;;;;5114345;28;20214;-53
2022/08/04 06:57:19;;;;;;;0.43;0.43;;;;;24.10;95903.00;;;;5114264;28;20595;-54
2022/08/04 06:59:49;;;;;;;0.70;0.70;;;;;24.30;95900.00;;;;5096515;28;20247;-54
2022/08/04 07:02:20;;;;;;;0.50;0.50;;;;;24.40;95897.00;;;;5114120;28;20300;-55
2022/08/04 07:04:47;;;;;;;0.65;0.65;;;;;24.60;95897.00;;;;5114276;28;20725;-55
2022/08/04 07:07:15;;;;;;;0.43;0.43;;;;;24.70;95899.00;;;;5114303;28;20280;-56
2022/08/04 07:09:43;;;;;;;0.55;0.55;;;;;24.90;95896.00;;;;5114283;28;20190;-53
2022/08/04 07:12:11;;;;;;;0.50;0.50;;;;;25.10;95895.00;;;;5114272;28;20315;-53
2022/08/04 07:14:39;;;;;;;0.60;0.60;;;;;25.20;95891.00;;;;5113836;28;20226;-53
2022/08/04 07:17:14;;;;;;;0.93;0.93;;;;;25.40;95892.00;;;;5114146;28;20190;-57
2022/08/04 07:19:43;;;;;;;0.45;0.45;;;;;25.60;95892.00;;;;5113451;28;20221;-52
2022/08/04 07:22:11;;;;;;;0.65;0.65;;;;;25.70;95893.00;;;;5113972;28;20190;-54
2022/08/04 07:24:38;;;;;;;0.52;0.52;;;;;26.00;95890.00;;;;5113815;28;20217;-54
2022/08/04 07:27:09;;;;;;;0.60;0.60;;;;;26.00;95893.00;;;;5113958;28;20273;-52
2022/08/04 07:29:39;;;;;;;0.52;0.52;;;;;26.10;95883.00;;;;5113935;28;20198;-53
2022/08/04 07:32:07;;;;;;;0.80;0.80;;;;;26.20;95886.00;;;;5113765;28;20200;-52
2022/08/04 07:34:35;;;;;;;0.70;0.70;;;;;26.30;95880.00;;;;5113792;28;20628;-53
2022/08/04 07:37:02;;;;;;;0.40;0.40;;;;;26.40;95883.00;;;;5113728;28;20602;-52
2022/08/04 07:39:31;;;;;;;0.50;0.50;;;;;26.70;95886.00;;;;5113731;28;20208;-53
2022/08/04 07:42:00;;;;;;;0.50;0.50;;;;;26.80;95888.00;;;;5113618;28;20684;-52
2022/08/04 07:44:28;;;;;;;1.58;1.10;;;;;26.90;95884.00;;;;5113633;28;20194;-52
2022/08/04 07:46:55;;;;;;;2.63;1.17;;;;;27.00;95886.00;;;;5113550;28;20196;-54
2022/08/04 07:49:25;;;;;;;0.63;0.63;;;;;27.20;95884.00;;;;5113576;28;20186;-52
2022/08/04 07:51:53;;;;;;;0.50;0.50;;;;;27.40;95885.00;;;;5113561;28;20644;-52
2022/08/04 07:54:20;;;;;;;0.40;0.40;;;;;27.60;95886.00;;;;5113442;28;20614;-52
2022/08/04 07:56:48;;;;;;;0.93;0.93;;;;;27.60;95895.00;;;;5113527;28;20247;-53
2022/08/04 07:59:15;;;;;;;0.73;0.73;;;;;27.60;95895.00;;;;5114171;28;20217;-52
2022/08/04 08:01:46;;;;;;;0.77;0.77;;;;;27.90;95883.00;;;;5117071;28;20193;-54
2022/08/04 08:04:14;;;;;;;3.50;1.15;;;;;27.90;95889.00;;;;5116910;28;20289;-52
2022/08/04 08:06:41;;;;;;;0.70;0.70;;;;;27.90;95886.00;;;;5117014;28;20210;-54
2022/08/04 08:09:10;;;;;;;0.52;0.52;;;;;28.10;95881.00;;;;5098992;28;20198;-55
2022/08/04 08:11:37;;;;;;;0.40;0.40;;;;;28.20;95864.00;;;;5116852;28;20214;-52
2022/08/04 08:14:07;;;;;;;0.68;0.68;;;;;28.40;95883.00;;;;5116631;28;20291;-54
2022/08/04 08:16:37;;;;;;;0.55;0.55;;;;;28.60;95878.00;;;;5116697;28;20645;-53
2022/08/04 08:19:08;;;;;;;0.70;0.70;;;;;28.70;95878.00;;;;5116824;28;20205;-55
2022/08/04 08:21:35;;;;;;;1.13;1.13;;;;;28.70;95879.00;;;;5116664;28;20629;-52
2022/08/04 08:24:02;;;;;;;0.50;0.50;;;;;28.70;95880.00;;;;5098588;28;20263;-52
2022/08/04 08:26:29;;;;;;;0.63;0.63;;;;;28.80;95886.00;;;;5116574;28;20197;-54
2022/08/04 08:28:57;;;;;;;0.70;0.70;;;;;29.10;95881.00;;;;5116531;28;20274;-52
2022/08/04 08:31:23;;;;;;;0.52;0.52;;;;;29.10;95876.00;;;;5116587;28;20693;-54
2022/08/04 08:33:51;;;;;;;0.60;0.60;;;;;29.20;95876.00;;;;5116521;28;20540;-52
2022/08/04 08:36:25;;;;;;;0.60;0.60;;;;;29.30;95877.00;;;;5098617;28;20691;-53
2022/08/04 08:39:00;;;;;;;1.08;1.08;;;;;29.40;95875.00;;;;5116555;28;20191;-54
2022/08/04 08:42:02;;;;;;;0.50;0.50;;;;;29.40;95876.00;;;;5116379;28;20300;-52
2022/08/04 08:44:55;;;;;;;0.70;0.70;;;;;29.60;95877.00;;;;5116330;28;20233;-53
2022/08/04 08:47:39;;;;;;;0.98;0.98;;;;;29.60;95883.00;;;;5116157;28;20526;-51
2022/08/04 08:50:56;;;;;;;0.55;0.55;;;;;29.80;95881.00;;;;5116134;28;20637;-51
2022/08/04 08:53:38;;;;;;;0.60;0.60;;;;;30.00;95874.00;;;;5013427;28;20296;-55
2022/08/04 08:56:17;;;;;;;0.85;0.85;;;;;30.10;95879.00;;;;5115821;28;20223;-53
2022/08/04 08:59:00;;;;;;;1.15;1.05;;;;;30.10;95882.00;;;;5116074;28;20194;-53
2022/08/04 09:01:45;;;;;;;0.60;0.60;;;;;30.20;95879.00;;;;5116086;28;20186;-53
2022/08/04 09:04:56;;;;;;;0.50;0.50;;;;;30.40;95887.00;;;;5115999;28;20225;-54
2022/08/04 09:07:53;;;;;;;0.70;0.70;;;;;30.40;95881.00;;;;5116269;28;20317;-52
2022/08/04 09:10:27;;;;;;;0.65;0.65;;;;;30.40;95882.00;;;;5094821;28;20665;-53
2022/08/04 09:13:01;;;;;;;0.50;0.50;;;;;30.60;95882.00;;;;5115597;28;20259;-54
2022/08/04 09:15:35;;;;;;;0.80;0.80;;;;;30.90;95881.00;;;;5115749;28;20278;-52
2022/08/04 09:18:08;;;;;;;1.35;1.25;;;;;31.00;95889.00;;;;5115846;28;20205;-53
2022/08/04 09:20:43;;;;;;;0.60;0.60;;;;;31.00;95875.00;;;;5097754;28;20303;-54
2022/08/04 09:23:23;;;;;;;8.25;1.08;;;;;31.10;95881.00;;;;5115818;28;20166;-52
2022/08/04 09:26:01;;;;;;;0.60;0.60;;;;;31.10;95882.00;;;;5115659;28;20217;-52
2022/08/04 09:28:36;;;;;;;0.70;0.70;;;;;31.20;95883.00;;;;5115739;28;20281;-52
2022/08/04 09:31:09;;;;;;;0.70;0.70;;;;;31.30;95876.00;;;;5115847;28;20211;-54
2022/08/04 09:33:48;;;;;;;0.90;0.90;;;;;31.70;95882.00;;;;5097689;28;20221;-52
2022/08/04 09:36:25;;;;;;;0.70;0.70;;;;;31.80;95878.00;;;;5115576;28;20195;-52
2022/08/04 09:39:05;;;;;;;1.02;1.02;;;;;31.70;95874.00;;;;5115498;28;20206;-53
2022/08/04 09:41:47;;;;;;;0.65;0.65;;;;;32.00;95871.00;;;;5115534;28;20522;-52
2022/08/04 09:44:27;;;;;;;0.50;0.50;;;;;32.10;95871.00;;;;5115365;28;20221;-54
2022/08/04 09:47:05;;;;;;;0.63;0.63;;;;;32.20;95869.00;;;;5115458;28;20194;-52
2022/08/04 09:49:37;;;;;;;0.90;0.90;;;;;32.10;95869.00;;;;5115519;28;20213;-57
2022/08/04 09:52:10;;;;;;;0.93;0.93;;;;;32.30;95872.00;;;;5097393;28;20363;-59
2022/08/04 09:54:48;;;;;;;1.00;1.00;;;;;32.50;95862.00;;;;5097142;28;20233;-52
2022/08/04 09:57:37;;;;;;;0.80;0.80;;;;;32.70;95866.00;;;;5115143;28;20671;-53
2022/08/04 10:00:09;;;;;;;0.60;0.60;;;;;32.90;95866.00;;;;5115030;28;20672;-54
2022/08/04 10:02:40;;;;;;;0.80;0.80;;;;;33.00;95873.00;;;;5115068;28;20222;-52
2022/08/04 10:05:13;;;;;;;0.75;0.75;;;;;33.20;95868.00;;;;5097185;28;20202;-54
2022/08/04 10:08:10;;;;;;;0.77;0.77;;;;;33.20;95859.00;;;;5115196;28;20190;-60
2022/08/04 10:10:47;;;;;;;0.60;0.60;;;;;33.40;95856.00;;;;5115453;28;20660;-58
2022/08/04 10:13:25;;;;;;;0.70;0.70;;;;;33.40;95873.00;;;;5115268;28;20633;-52
2022/08/04 10:16:19;;;;;;;0.88;0.88;;;;;33.40;95859.00;;;;5114939;28;20251;-51
2022/08/04 10:19:00;;;;;;;2.58;0.80;;;;;33.80;95856.00;;;;5114733;28;20226;-54
2022/08/04 10:21:42;;;;;;;0.93;0.93;;;;;34.00;95853.00;;;;5114758;28;20205;-53
2022/08/04 10:24:23;;;;;;;0.75;0.75;;;;;34.10;95847.00;;;;5114715;28;20293;-56
2022/08/04 10:26:55;;;;;;;0.80;0.80;;;;;34.00;95842.00;;;;5114789;28;20205;-57
2022/08/04 10:29:28;;;;;;;0.88;0.88;;;;;34.10;95845.00;;;;5114671;28;20214;-52
2022/08/04 10:32:03;;;;;;;0.95;0.95;;;;;34.30;95858.00;;;;5114697;28;20198;-53
2022/08/04 10:34:38;;;;;;;0.80;0.80;;;;;34.30;95841.00;;;;5114434;28;20221;-53
2022/08/04 10:37:16;;;;;;;0.77;0.77;;;;;34.40;95856.00;;;;5114710;28;20284;-54
2022/08/04 10:42:48;;;;;;;0.80;0.80;;;;;33.80;95854.00;;;;5114493;28;20272;-52
2022/08/04 10:45:18;;;;;;;1.40;1.30;;;;;33.80;95846.00;;;;5114499;28;20209;-53
2022/08/04 10:47:55;;;;;;;0.70;0.70;;;;;33.60;95862.00;;;;5114420;28;20232;-52
2022/08/04 10:50:25;;;;;;;0.73;0.73;;;;;33.50;95861.00;;;;5114405;28;20186;-52
2022/08/04 10:53:00;;;;;;;0.70;0.70;;;;;33.40;95867.00;;;;5114185;28;20267;-52
2022/08/04 10:55:34;;;;;;;0.70;0.70;;;;;33.20;95869.00;;;;5114172;28;20628;-52
2022/08/04 10:58:08;;;;;;;0.80;0.80;;;;;33.00;95863.00;;;;5114184;28;20228;-51
2022/08/04 11:00:41;;;;;;;0.85;0.85;;;;;33.00;95872.00;;;;5114286;28;20200;-52
2022/08/04 11:03:14;;;;;;;0.60;0.60;;;;;32.90;95866.00;;;;5114204;28;20318;-53
2022/08/04 11:05:45;;;;;;;0.75;0.75;;;;;33.00;95860.00;;;;5113937;28;20194;-53
2022/08/04 11:08:15;;;;;;;0.57;0.57;;;;;33.70;95856.00;;;;5113799;28;20640;-51
2022/08/04 11:10:46;;;;;;;0.82;0.82;;;;;34.10;95855.00;;;;5114184;28;20198;-53
2022/08/04 11:13:17;;;;;;;0.70;0.70;;;;;34.50;95848.00;;;;5114093;28;20200;-53
2022/08/04 11:15:50;;;;;;;0.82;0.82;;;;;34.70;95849.00;;;;5096217;28;20237;-52
2022/08/04 11:18:25;;;;;;;0.73;0.73;;;;;34.90;95851.00;;;;5114086;28;20228;-55
2022/08/04 11:21:01;;;;;;;0.70;0.70;;;;;35.10;95843.00;;;;5113875;28;20668;-52
2022/08/04 11:23:34;;;;;;;1.02;1.02;;;;;35.30;95844.00;;;;5113972;28;20205;-52
2022/08/04 11:26:08;;;;;;;0.75;0.75;;;;;35.40;95838.00;;;;5113925;28;20300;-52
2022/08/04 11:28:45;;;;;;;1.52;1.20;;;;;35.60;95846.00;;;;5114011;28;20197;-53
2022/08/04 11:31:18;;;;;;;0.70;0.70;;;;;35.60;95844.00;;;;5095938;28;20209;-55
2022/08/04 11:33:55;;;;;;;1.35;1.30;;;;;35.70;95846.00;;;;5113883;28;20264;-54
2022/08/04 11:36:33;;;;;;;0.70;0.70;;;;;35.70;95841.00;;;;5117599;28;20197;-53
2022/08/04 11:39:13;;;;;;;0.85;0.85;;;;;35.60;95845.00;;;;5117482;28;20316;-52
2022/08/04 11:41:50;;;;;;;0.90;0.90;;;;;35.80;95842.00;;;;5117357;28;20625;-52
2022/08/04 11:44:25;;;;;;;0.88;0.88;;;;;35.80;95832.00;;;;5117241;28;20252;-52
2022/08/04 11:46:58;;;;;;;0.90;0.90;;;;;36.20;95838.00;;;;5117315;28;20577;-53
2022/08/04 11:49:33;;;;;;;0.60;0.60;;;;;36.50;95831.00;;;;5117211;28;20239;-53
2022/08/04 11:52:02;;;;;;;0.60;0.60;;;;;36.40;95827.00;;;;5117225;28;20223;-53
2022/08/04 11:54:32;;;;;;;0.98;0.98;;;;;36.60;95835.00;;;;5117236;28;20229;-53
2022/08/04 11:56:59;;;;;;;0.80;0.80;;;;;36.60;95852.00;;;;5117108;28;20190;-54
2022/08/04 11:59:33;;;;;;;0.82;0.82;;;;;35.50;95833.00;;;;5117064;28;20232;-52
2022/08/04 12:02:32;;;;;;;0.70;0.70;;;;;36.10;95833.00;;;;5117011;28;20226;-52
2022/08/04 12:05:01;;;;;;;0.73;0.73;;;;;36.40;95837.00;;;;5112985;28;20232;-52
2022/08/04 12:07:42;;;;;;;0.80;0.80;;;;;36.70;95826.00;;;;5116802;28;20214;-56
2022/08/04 12:10:25;;;;;;;0.95;0.95;;;;;37.10;95827.00;;;;5117027;28;20327;-53
2022/08/04 12:13:01;;;;;;;1.05;1.05;;;;;37.20;95833.00;;;;5116732;28;20600;-54
2022/08/04 12:15:32;;;;;;;0.80;0.80;;;;;37.20;95831.00;;;;5116693;28;20225;-52
2022/08/04 12:18:08;;;;;;;0.80;0.80;;;;;37.50;95829.00;;;;5116759;28;20218;-54
2022/08/04 12:20:42;;;;;;;0.70;0.70;;;;;37.80;95850.00;;;;5116773;28;20201;-54
2022/08/04 12:23:19;;;;;;;0.90;0.90;;;;;37.50;95844.00;;;;5116728;28;20178;-52
2022/08/04 12:25:49;;;;;;;0.70;0.70;;;;;36.50;95852.00;;;;5116674;28;20644;-52
2022/08/04 12:28:24;;;;;;;0.85;0.85;;;;;36.00;95854.00;;;;5116806;28;20200;-53
2022/08/04 12:30:57;;;;;;;1.75;0.98;;;;;35.90;95851.00;;;;5098790;28;20208;-52
2022/08/04 12:33:37;;;;;;;0.85;0.85;;;;;35.50;95859.00;;;;5116568;28;20229;-55
2022/08/04 12:36:18;;;;;;;0.93;0.93;;;;;35.10;95850.00;;;;5116397;28;20304;-52
2022/08/04 12:38:58;;;;;;;1.33;1.23;;;;;34.80;95852.00;;;;5116348;28;20494;-52
2022/08/04 12:41:33;;;;;;;0.88;0.88;;;;;34.40;95848.00;;;;5116325;28;20213;-52
2022/08/04 12:44:06;;;;;;;0.95;0.95;;;;;34.30;95853.00;;;;5116429;28;20217;-53
2022/08/04 12:46:34;;;;;;;0.80;0.80;;;;;34.30;95850.00;;;;5115062;28;20221;-54
2022/08/04 12:49:03;;;;;;;1.17;1.17;;;;;34.80;95817.00;;;;5116292;28;20552;-54
2022/08/04 12:51:38;;;;;;;0.70;0.70;;;;;35.70;95819.00;;;;5116391;28;20233;-54
2022/08/04 12:54:06;;;;;;;0.80;0.80;;;;;36.30;95815.00;;;;5116208;28;20221;-54
2022/08/04 12:56:34;;;;;;;0.77;0.77;;;;;36.30;95851.00;;;;5116178;28;20301;-55
2022/08/04 12:59:04;;;;;;;2.65;1.05;;;;;36.30;95824.00;;;;5116066;28;20222;-56
2022/08/04 13:01:32;;;;;;;0.90;0.90;;;;;36.70;95839.00;;;;5098230;28;20233;-55
2022/08/04 13:04:02;;;;;;;0.85;0.85;;;;;36.20;95811.00;;;;5116201;28;20606;-55
2022/08/04 13:06:33;;;;;;;0.90;0.90;;;;;36.70;95818.00;;;;5116112;28;20625;-54
2022/08/04 13:09:05;;;;;;;0.70;0.70;;;;;37.40;95843.00;;;;5116220;28;20641;-54